sensor_id;sensor_type;location;lat;lon;timestamp;P1;durP1;ratioP1;P2;durP2;ratioP2
56413;SDS011;42318;48.452;19.526;2023-07-20T00:01:17;5.25;;;3.28;;
56413;SDS011;42318;48.452;19.526;2023-07-20T00:06:17;5.22;;;3.40;;
56413;SDS011;42318;48.452;19.526;2023-07-20T00:11:18;6.53;;;3.05;;
56413;SDS011;42318;48.452;19.526;2023-07-20T00:16:19;6.65;;;3.40;;
56413;SDS011;42318;48.452;19.526;2023-07-20T00:21:20;5.88;;;3.60;;
56413;SDS011;42318;48.452;19.526;2023-07-20T00:26:21;4.18;;;3.25;;
56413;SDS011;42318;48.452;19.526;2023-07-20T00:31:22;4.05;;;3.00;;
56413;SDS011;42318;48.452;19.526;2023-07-20T00:36:23;6.00;;;3.33;;
56413;SDS011;42318;48.452;19.526;2023-07-20T00:41:24;5.28;;;3.28;;
56413;SDS011;42318;48.452;19.526;2023-07-20T00:46:24;4.28;;;3.03;;
56413;SDS011;42318;48.452;19.526;2023-07-20T00:51:26;4.78;;;3.40;;
56413;SDS011;42318;48.452;19.526;2023-07-20T00:56:27;4.22;;;3.17;;
56413;SDS011;42318;48.452;19.526;2023-07-20T01:01:28;5.47;;;3.38;;
56413;SDS011;42318;48.452;19.526;2023-07-20T01:12:09;4.03;;;2.90;;
56413;SDS011;42318;48.452;19.526;2023-07-20T01:17:19;3.75;;;2.85;;
56413;SDS011;42318;48.452;19.526;2023-07-20T01:33:08;7.18;;;3.22;;
56413;SDS011;42318;48.452;19.526;2023-07-20T01:38:10;7.50;;;3.55;;
56413;SDS011;42318;48.452;19.526;2023-07-20T01:43:12;4.28;;;3.10;;
56413;SDS011;42318;48.452;19.526;2023-07-20T01:48:13;5.40;;;3.25;;
56413;SDS011;42318;48.452;19.526;2023-07-20T01:53:14;4.88;;;3.50;;
56413;SDS011;42318;48.452;19.526;2023-07-20T01:58:15;5.22;;;3.13;;
56413;SDS011;42318;48.452;19.526;2023-07-20T02:03:16;5.57;;;3.33;;
56413;SDS011;42318;48.452;19.526;2023-07-20T02:08:17;4.22;;;3.13;;
56413;SDS011;42318;48.452;19.526;2023-07-20T02:13:18;5.20;;;3.38;;
56413;SDS011;42318;48.452;19.526;2023-07-20T02:18:19;4.85;;;3.42;;
56413;SDS011;42318;48.452;19.526;2023-07-20T02:23:20;4.43;;;3.13;;
56413;SDS011;42318;48.452;19.526;2023-07-20T02:28:21;7.00;;;3.50;;
56413;SDS011;42318;48.452;19.526;2023-07-20T02:33:21;4.32;;;3.03;;
56413;SDS011;42318;48.452;19.526;2023-07-20T02:38:22;3.72;;;2.83;;
56413;SDS011;42318;48.452;19.526;2023-07-20T02:43:23;4.20;;;3.10;;
56413;SDS011;42318;48.452;19.526;2023-07-20T02:48:24;4.78;;;2.97;;
56413;SDS011;42318;48.452;19.526;2023-07-20T02:53:24;3.90;;;2.95;;
56413;SDS011;42318;48.452;19.526;2023-07-20T02:58:25;4.47;;;3.10;;
56413;SDS011;42318;48.452;19.526;2023-07-20T03:03:26;3.95;;;2.92;;
56413;SDS011;42318;48.452;19.526;2023-07-20T03:08:27;5.75;;;3.10;;
56413;SDS011;42318;48.452;19.526;2023-07-20T03:13:27;3.92;;;3.10;;
56413;SDS011;42318;48.452;19.526;2023-07-20T03:18:28;3.97;;;2.85;;
56413;SDS011;42318;48.452;19.526;2023-07-20T03:23:29;4.20;;;3.45;;
56413;SDS011;42318;48.452;19.526;2023-07-20T03:28:30;4.13;;;3.13;;
56413;SDS011;42318;48.452;19.526;2023-07-20T03:33:31;6.05;;;3.88;;
56413;SDS011;42318;48.452;19.526;2023-07-20T03:38:32;5.13;;;3.33;;
56413;SDS011;42318;48.452;19.526;2023-07-20T03:43:33;6.55;;;3.75;;
56413;SDS011;42318;48.452;19.526;2023-07-20T03:48:34;4.93;;;3.22;;
56413;SDS011;42318;48.452;19.526;2023-07-20T03:53:35;4.18;;;2.80;;
56413;SDS011;42318;48.452;19.526;2023-07-20T03:58:35;4.00;;;3.35;;
56413;SDS011;42318;48.452;19.526;2023-07-20T04:03:36;4.22;;;3.40;;
56413;SDS011;42318;48.452;19.526;2023-07-20T04:08:37;5.53;;;3.20;;
56413;SDS011;42318;48.452;19.526;2023-07-20T04:13:38;5.72;;;3.60;;
56413;SDS011;42318;48.452;19.526;2023-07-20T04:18:39;6.65;;;3.08;;
56413;SDS011;42318;48.452;19.526;2023-07-20T04:23:40;4.25;;;3.47;;
56413;SDS011;42318;48.452;19.526;2023-07-20T04:28:41;4.63;;;3.05;;
56413;SDS011;42318;48.452;19.526;2023-07-20T04:33:43;5.43;;;3.63;;
56413;SDS011;42318;48.452;19.526;2023-07-20T04:38:43;3.83;;;2.80;;
56413;SDS011;42318;48.452;19.526;2023-07-20T04:43:44;5.85;;;3.28;;
56413;SDS011;42318;48.452;19.526;2023-07-20T04:48:45;5.47;;;3.60;;
56413;SDS011;42318;48.452;19.526;2023-07-20T04:53:49;4.60;;;3.45;;
56413;SDS011;42318;48.452;19.526;2023-07-20T04:58:49;6.47;;;3.20;;
56413;SDS011;42318;48.452;19.526;2023-07-20T05:03:50;4.53;;;3.38;;
56413;SDS011;42318;48.452;19.526;2023-07-20T05:08:51;5.25;;;3.20;;
56413;SDS011;42318;48.452;19.526;2023-07-20T05:13:52;4.10;;;2.97;;
56413;SDS011;42318;48.452;19.526;2023-07-20T05:18:52;4.20;;;2.85;;
56413;SDS011;42318;48.452;19.526;2023-07-20T05:23:53;5.72;;;3.20;;
56413;SDS011;42318;48.452;19.526;2023-07-20T05:28:54;5.03;;;3.20;;
56413;SDS011;42318;48.452;19.526;2023-07-20T05:33:55;4.93;;;3.40;;
56413;SDS011;42318;48.452;19.526;2023-07-20T05:38:56;4.93;;;3.33;;
56413;SDS011;42318;48.452;19.526;2023-07-20T05:43:56;6.85;;;3.75;;
56413;SDS011;42318;48.452;19.526;2023-07-20T05:48:57;6.63;;;3.55;;
56413;SDS011;42318;48.452;19.526;2023-07-20T05:53:58;5.93;;;3.78;;
56413;SDS011;42318;48.452;19.526;2023-07-20T05:58:59;5.50;;;3.47;;
56413;SDS011;42318;48.452;19.526;2023-07-20T06:03:59;6.40;;;3.58;;
56413;SDS011;42318;48.452;19.526;2023-07-20T06:09:00;6.72;;;3.80;;
56413;SDS011;42318;48.452;19.526;2023-07-20T06:14:05;5.60;;;3.95;;
56413;SDS011;42318;48.452;19.526;2023-07-20T06:19:06;6.03;;;3.95;;
56413;SDS011;42318;48.452;19.526;2023-07-20T06:24:07;5.95;;;4.05;;
56413;SDS011;42318;48.452;19.526;2023-07-20T06:29:08;7.72;;;4.47;;
56413;SDS011;42318;48.452;19.526;2023-07-20T06:34:09;8.55;;;4.38;;
56413;SDS011;42318;48.452;19.526;2023-07-20T06:39:10;5.30;;;3.97;;
56413;SDS011;42318;48.452;19.526;2023-07-20T06:44:11;5.88;;;3.60;;
56413;SDS011;42318;48.452;19.526;2023-07-20T06:49:15;16.35;;;4.15;;
56413;SDS011;42318;48.452;19.526;2023-07-20T06:54:24;7.57;;;3.63;;
56413;SDS011;42318;48.452;19.526;2023-07-20T06:59:25;6.30;;;4.63;;
56413;SDS011;42318;48.452;19.526;2023-07-20T07:04:26;5.50;;;3.40;;
56413;SDS011;42318;48.452;19.526;2023-07-20T07:09:27;6.43;;;3.72;;
56413;SDS011;42318;48.452;19.526;2023-07-20T07:14:28;4.93;;;3.47;;
56413;SDS011;42318;48.452;19.526;2023-07-20T07:19:29;5.35;;;3.60;;
56413;SDS011;42318;48.452;19.526;2023-07-20T07:24:30;5.10;;;4.10;;
56413;SDS011;42318;48.452;19.526;2023-07-20T07:29:34;5.10;;;3.83;;
56413;SDS011;42318;48.452;19.526;2023-07-20T07:34:34;5.97;;;3.53;;
56413;SDS011;42318;48.452;19.526;2023-07-20T07:39:35;5.65;;;3.72;;
56413;SDS011;42318;48.452;19.526;2023-07-20T07:44:36;6.18;;;3.65;;
56413;SDS011;42318;48.452;19.526;2023-07-20T07:49:37;4.45;;;3.15;;
56413;SDS011;42318;48.452;19.526;2023-07-20T07:54:38;29.65;;;9.93;;
56413;SDS011;42318;48.452;19.526;2023-07-20T07:59:38;37.05;;;12.45;;
56413;SDS011;42318;48.452;19.526;2023-07-20T08:04:40;27.85;;;10.55;;
56413;SDS011;42318;48.452;19.526;2023-07-20T08:09:40;37.17;;;11.27;;
56413;SDS011;42318;48.452;19.526;2023-07-20T08:14:41;32.95;;;9.85;;
56413;SDS011;42318;48.452;19.526;2023-07-20T08:19:43;23.63;;;9.18;;
56413;SDS011;42318;48.452;19.526;2023-07-20T08:24:44;21.65;;;6.95;;
56413;SDS011;42318;48.452;19.526;2023-07-20T08:29:45;26.63;;;7.70;;
56413;SDS011;42318;48.452;19.526;2023-07-20T08:34:46;27.23;;;8.40;;
56413;SDS011;42318;48.452;19.526;2023-07-20T08:39:46;20.85;;;7.25;;
56413;SDS011;42318;48.452;19.526;2023-07-20T08:44:47;19.38;;;7.28;;
56413;SDS011;42318;48.452;19.526;2023-07-20T08:49:49;20.50;;;7.22;;
56413;SDS011;42318;48.452;19.526;2023-07-20T08:54:50;18.30;;;7.07;;
56413;SDS011;42318;48.452;19.526;2023-07-20T08:59:53;15.52;;;6.25;;
56413;SDS011;42318;48.452;19.526;2023-07-20T09:04:54;16.02;;;6.30;;
56413;SDS011;42318;48.452;19.526;2023-07-20T09:09:56;19.80;;;6.63;;
56413;SDS011;42318;48.452;19.526;2023-07-20T09:14:58;16.73;;;6.53;;
56413;SDS011;42318;48.452;19.526;2023-07-20T09:20:02;18.42;;;6.78;;
56413;SDS011;42318;48.452;19.526;2023-07-20T09:25:13;13.05;;;5.43;;
56413;SDS011;42318;48.452;19.526;2023-07-20T09:30:16;11.60;;;5.82;;
56413;SDS011;42318;48.452;19.526;2023-07-20T09:35:18;11.65;;;5.13;;
56413;SDS011;42318;48.452;19.526;2023-07-20T09:40:22;17.30;;;5.60;;
56413;SDS011;42318;48.452;19.526;2023-07-20T09:45:23;16.73;;;7.00;;
56413;SDS011;42318;48.452;19.526;2023-07-20T09:50:24;13.55;;;6.22;;
56413;SDS011;42318;48.452;19.526;2023-07-20T09:55:25;14.30;;;5.65;;
56413;SDS011;42318;48.452;19.526;2023-07-20T10:00:26;12.05;;;5.03;;
56413;SDS011;42318;48.452;19.526;2023-07-20T10:05:27;10.93;;;5.88;;
56413;SDS011;42318;48.452;19.526;2023-07-20T10:10:34;11.15;;;4.97;;
56413;SDS011;42318;48.452;19.526;2023-07-20T10:15:37;12.13;;;5.28;;
56413;SDS011;42318;48.452;19.526;2023-07-20T10:20:43;14.25;;;5.70;;
56413;SDS011;42318;48.452;19.526;2023-07-20T10:25:46;10.82;;;4.88;;
56413;SDS011;42318;48.452;19.526;2023-07-20T10:30:47;15.10;;;5.13;;
56413;SDS011;42318;48.452;19.526;2023-07-20T10:40:54;10.32;;;4.78;;
56413;SDS011;42318;48.452;19.526;2023-07-20T10:45:57;9.50;;;4.75;;
56413;SDS011;42318;48.452;19.526;2023-07-20T10:51:14;8.18;;;4.75;;
56413;SDS011;42318;48.452;19.526;2023-07-20T10:56:22;9.15;;;4.53;;
56413;SDS011;42318;48.452;19.526;2023-07-20T11:01:27;9.35;;;4.72;;
56413;SDS011;42318;48.452;19.526;2023-07-20T11:06:31;8.57;;;4.20;;
56413;SDS011;42318;48.452;19.526;2023-07-20T11:11:35;7.82;;;4.53;;
56413;SDS011;42318;48.452;19.526;2023-07-20T11:16:41;7.95;;;4.47;;
56413;SDS011;42318;48.452;19.526;2023-07-20T11:21:44;11.43;;;4.45;;
56413;SDS011;42318;48.452;19.526;2023-07-20T11:26:50;13.57;;;4.78;;
56413;SDS011;42318;48.452;19.526;2023-07-20T11:31:52;6.97;;;3.90;;
56413;SDS011;42318;48.452;19.526;2023-07-20T11:36:53;9.30;;;4.60;;
56413;SDS011;42318;48.452;19.526;2023-07-20T11:41:55;7.70;;;3.97;;
56413;SDS011;42318;48.452;19.526;2023-07-20T11:52:01;6.53;;;4.07;;
56413;SDS011;42318;48.452;19.526;2023-07-20T11:57:03;7.85;;;3.60;;
56413;SDS011;42318;48.452;19.526;2023-07-20T12:02:05;5.00;;;3.13;;
56413;SDS011;42318;48.452;19.526;2023-07-20T12:07:07;6.75;;;3.92;;
56413;SDS011;42318;48.452;19.526;2023-07-20T12:12:11;7.45;;;3.80;;
56413;SDS011;42318;48.452;19.526;2023-07-20T12:17:15;9.97;;;3.97;;
56413;SDS011;42318;48.452;19.526;2023-07-20T12:22:17;5.97;;;3.42;;
56413;SDS011;42318;48.452;19.526;2023-07-20T12:27:18;8.70;;;3.50;;
56413;SDS011;42318;48.452;19.526;2023-07-20T12:32:18;10.43;;;4.40;;
56413;SDS011;42318;48.452;19.526;2023-07-20T12:37:19;8.27;;;3.67;;
56413;SDS011;42318;48.452;19.526;2023-07-20T12:42:20;5.53;;;3.72;;
56413;SDS011;42318;48.452;19.526;2023-07-20T12:47:21;6.93;;;3.85;;
56413;SDS011;42318;48.452;19.526;2023-07-20T12:52:21;7.47;;;3.70;;
56413;SDS011;42318;48.452;19.526;2023-07-20T12:57:22;7.65;;;3.95;;
56413;SDS011;42318;48.452;19.526;2023-07-20T13:02:23;7.97;;;3.65;;
56413;SDS011;42318;48.452;19.526;2023-07-20T13:07:30;5.95;;;3.38;;
56413;SDS011;42318;48.452;19.526;2023-07-20T13:12:33;7.75;;;3.40;;
56413;SDS011;42318;48.452;19.526;2023-07-20T13:17:36;5.68;;;3.42;;
56413;SDS011;42318;48.452;19.526;2023-07-20T13:22:39;7.53;;;3.42;;
56413;SDS011;42318;48.452;19.526;2023-07-20T13:27:40;5.55;;;3.30;;
56413;SDS011;42318;48.452;19.526;2023-07-20T13:32:41;5.30;;;3.30;;
56413;SDS011;42318;48.452;19.526;2023-07-20T13:37:42;5.95;;;3.63;;
56413;SDS011;42318;48.452;19.526;2023-07-20T13:42:43;6.70;;;3.40;;
56413;SDS011;42318;48.452;19.526;2023-07-20T13:47:44;5.28;;;3.38;;
56413;SDS011;42318;48.452;19.526;2023-07-20T13:52:45;5.93;;;3.78;;
56413;SDS011;42318;48.452;19.526;2023-07-20T13:57:47;5.75;;;3.40;;
56413;SDS011;42318;48.452;19.526;2023-07-20T14:02:48;5.30;;;2.80;;
56413;SDS011;42318;48.452;19.526;2023-07-20T14:07:49;5.90;;;3.92;;
56413;SDS011;42318;48.452;19.526;2023-07-20T14:12:50;5.40;;;2.97;;
56413;SDS011;42318;48.452;19.526;2023-07-20T14:17:51;6.72;;;3.40;;
56413;SDS011;42318;48.452;19.526;2023-07-20T14:22:52;6.35;;;3.50;;
56413;SDS011;42318;48.452;19.526;2023-07-20T14:27:53;5.75;;;3.05;;
56413;SDS011;42318;48.452;19.526;2023-07-20T14:32:53;5.78;;;3.00;;
56413;SDS011;42318;48.452;19.526;2023-07-20T14:37:54;4.72;;;3.08;;
56413;SDS011;42318;48.452;19.526;2023-07-20T14:42:55;6.28;;;2.90;;
56413;SDS011;42318;48.452;19.526;2023-07-20T14:47:56;6.22;;;3.25;;
56413;SDS011;42318;48.452;19.526;2023-07-20T14:52:57;4.78;;;3.00;;
56413;SDS011;42318;48.452;19.526;2023-07-20T14:57:58;5.07;;;2.70;;
56413;SDS011;42318;48.452;19.526;2023-07-20T15:02:59;6.18;;;3.40;;
56413;SDS011;42318;48.452;19.526;2023-07-20T15:07:59;4.95;;;2.80;;
56413;SDS011;42318;48.452;19.526;2023-07-20T15:13:00;5.80;;;3.05;;
56413;SDS011;42318;48.452;19.526;2023-07-20T15:18:01;6.72;;;3.00;;
56413;SDS011;42318;48.452;19.526;2023-07-20T15:23:02;4.45;;;2.67;;
56413;SDS011;42318;48.452;19.526;2023-07-20T15:28:03;5.88;;;2.58;;
56413;SDS011;42318;48.452;19.526;2023-07-20T15:33:04;6.07;;;3.15;;
56413;SDS011;42318;48.452;19.526;2023-07-20T15:38:05;5.13;;;2.22;;
56413;SDS011;42318;48.452;19.526;2023-07-20T15:43:05;5.28;;;3.00;;
56413;SDS011;42318;48.452;19.526;2023-07-20T15:48:06;4.63;;;2.60;;
56413;SDS011;42318;48.452;19.526;2023-07-20T15:53:07;5.45;;;2.75;;
56413;SDS011;42318;48.452;19.526;2023-07-20T15:58:08;3.80;;;2.58;;
56413;SDS011;42318;48.452;19.526;2023-07-20T16:03:09;5.40;;;2.88;;
56413;SDS011;42318;48.452;19.526;2023-07-20T16:08:11;4.10;;;2.95;;
56413;SDS011;42318;48.452;19.526;2023-07-20T16:13:12;4.25;;;2.78;;
56413;SDS011;42318;48.452;19.526;2023-07-20T16:18:12;4.00;;;2.70;;
56413;SDS011;42318;48.452;19.526;2023-07-20T16:23:13;5.43;;;2.42;;
56413;SDS011;42318;48.452;19.526;2023-07-20T16:28:14;4.55;;;2.85;;
56413;SDS011;42318;48.452;19.526;2023-07-20T16:33:15;5.50;;;2.42;;
56413;SDS011;42318;48.452;19.526;2023-07-20T16:38:16;8.23;;;4.13;;
56413;SDS011;42318;48.452;19.526;2023-07-20T16:43:17;7.00;;;3.53;;
56413;SDS011;42318;48.452;19.526;2023-07-20T16:48:18;21.95;;;7.25;;
56413;SDS011;42318;48.452;19.526;2023-07-20T16:53:19;20.90;;;7.68;;
56413;SDS011;42318;48.452;19.526;2023-07-20T16:58:20;26.13;;;9.93;;
56413;SDS011;42318;48.452;19.526;2023-07-20T17:03:22;25.92;;;9.88;;
56413;SDS011;42318;48.452;19.526;2023-07-20T17:08:23;21.83;;;9.57;;
56413;SDS011;42318;48.452;19.526;2023-07-20T17:13:24;37.63;;;12.60;;
56413;SDS011;42318;48.452;19.526;2023-07-20T17:18:25;36.97;;;13.80;;
56413;SDS011;42318;48.452;19.526;2023-07-20T17:23:26;45.33;;;16.75;;
56413;SDS011;42318;48.452;19.526;2023-07-20T17:28:30;46.13;;;14.82;;
56413;SDS011;42318;48.452;19.526;2023-07-20T17:33:30;45.85;;;15.65;;
56413;SDS011;42318;48.452;19.526;2023-07-20T17:38:31;31.02;;;11.50;;
56413;SDS011;42318;48.452;19.526;2023-07-20T17:43:32;35.28;;;13.80;;
56413;SDS011;42318;48.452;19.526;2023-07-20T17:48:33;33.70;;;12.55;;
56413;SDS011;42318;48.452;19.526;2023-07-20T17:53:34;33.60;;;11.32;;
56413;SDS011;42318;48.452;19.526;2023-07-20T17:58:34;40.95;;;12.18;;
56413;SDS011;42318;48.452;19.526;2023-07-20T18:03:35;12.80;;;5.15;;
56413;SDS011;42318;48.452;19.526;2023-07-20T18:08:36;15.07;;;5.45;;
56413;SDS011;42318;48.452;19.526;2023-07-20T18:13:38;8.50;;;4.30;;
56413;SDS011;42318;48.452;19.526;2023-07-20T18:18:38;6.38;;;3.20;;
56413;SDS011;42318;48.452;19.526;2023-07-20T18:23:39;4.50;;;2.80;;
56413;SDS011;42318;48.452;19.526;2023-07-20T18:28:40;4.63;;;2.05;;
56413;SDS011;42318;48.452;19.526;2023-07-20T18:33:41;4.43;;;2.30;;
56413;SDS011;42318;48.452;19.526;2023-07-20T18:38:42;2.70;;;1.60;;
56413;SDS011;42318;48.452;19.526;2023-07-20T18:43:43;3.78;;;1.90;;
56413;SDS011;42318;48.452;19.526;2023-07-20T18:48:44;2.85;;;2.08;;
56413;SDS011;42318;48.452;19.526;2023-07-20T18:53:45;2.78;;;1.55;;
56413;SDS011;42318;48.452;19.526;2023-07-20T18:58:46;2.05;;;1.38;;
56413;SDS011;42318;48.452;19.526;2023-07-20T19:03:48;2.15;;;1.27;;
56413;SDS011;42318;48.452;19.526;2023-07-20T19:08:49;2.47;;;1.73;;
56413;SDS011;42318;48.452;19.526;2023-07-20T19:13:50;2.40;;;1.40;;
56413;SDS011;42318;48.452;19.526;2023-07-20T19:18:50;3.55;;;2.08;;
56413;SDS011;42318;48.452;19.526;2023-07-20T19:23:51;1.73;;;1.27;;
56413;SDS011;42318;48.452;19.526;2023-07-20T19:28:53;2.47;;;1.40;;
56413;SDS011;42318;48.452;19.526;2023-07-20T19:33:54;2.30;;;1.50;;
56413;SDS011;42318;48.452;19.526;2023-07-20T19:38:55;2.10;;;1.38;;
56413;SDS011;42318;48.452;19.526;2023-07-20T19:43:56;3.83;;;1.80;;
56413;SDS011;42318;48.452;19.526;2023-07-20T19:48:57;2.33;;;1.50;;
56413;SDS011;42318;48.452;19.526;2023-07-20T19:53:58;2.53;;;1.52;;
56413;SDS011;42318;48.452;19.526;2023-07-20T19:58:58;2.33;;;1.83;;
56413;SDS011;42318;48.452;19.526;2023-07-20T20:03:59;4.63;;;2.00;;
56413;SDS011;42318;48.452;19.526;2023-07-20T20:09:00;2.50;;;1.75;;
56413;SDS011;42318;48.452;19.526;2023-07-20T20:14:02;3.60;;;1.83;;
56413;SDS011;42318;48.452;19.526;2023-07-20T20:19:03;3.28;;;1.65;;
56413;SDS011;42318;48.452;19.526;2023-07-20T20:24:04;2.17;;;1.55;;
56413;SDS011;42318;48.452;19.526;2023-07-20T20:29:06;1.98;;;1.45;;
56413;SDS011;42318;48.452;19.526;2023-07-20T20:34:07;3.03;;;1.83;;
56413;SDS011;42318;48.452;19.526;2023-07-20T20:39:08;2.22;;;1.80;;
56413;SDS011;42318;48.452;19.526;2023-07-20T20:44:08;2.78;;;1.80;;
56413;SDS011;42318;48.452;19.526;2023-07-20T20:49:09;3.67;;;1.95;;
56413;SDS011;42318;48.452;19.526;2023-07-20T20:54:10;3.22;;;1.77;;
56413;SDS011;42318;48.452;19.526;2023-07-20T20:59:12;3.40;;;1.60;;
56413;SDS011;42318;48.452;19.526;2023-07-20T21:04:13;2.25;;;1.42;;
56413;SDS011;42318;48.452;19.526;2023-07-20T21:09:14;2.78;;;1.40;;
56413;SDS011;42318;48.452;19.526;2023-07-20T21:14:15;1.80;;;1.50;;
56413;SDS011;42318;48.452;19.526;2023-07-20T21:19:16;2.47;;;1.40;;
56413;SDS011;42318;48.452;19.526;2023-07-20T21:24:17;1.83;;;1.50;;
56413;SDS011;42318;48.452;19.526;2023-07-20T21:29:18;2.22;;;1.60;;
56413;SDS011;42318;48.452;19.526;2023-07-20T21:34:18;2.58;;;1.50;;
56413;SDS011;42318;48.452;19.526;2023-07-20T21:39:19;1.92;;;1.40;;
56413;SDS011;42318;48.452;19.526;2023-07-20T21:44:20;2.53;;;1.60;;
56413;SDS011;42318;48.452;19.526;2023-07-20T21:49:21;2.40;;;1.40;;
56413;SDS011;42318;48.452;19.526;2023-07-20T21:54:22;2.78;;;1.70;;
56413;SDS011;42318;48.452;19.526;2023-07-20T21:59:23;4.90;;;2.08;;
56413;SDS011;42318;48.452;19.526;2023-07-20T22:04:24;3.13;;;1.77;;
56413;SDS011;42318;48.452;19.526;2023-07-20T22:09:25;2.80;;;2.03;;
56413;SDS011;42318;48.452;19.526;2023-07-20T22:14:27;2.70;;;1.60;;
56413;SDS011;42318;48.452;19.526;2023-07-20T22:19:28;2.90;;;1.83;;
56413;SDS011;42318;48.452;19.526;2023-07-20T22:24:29;3.08;;;2.05;;
56413;SDS011;42318;48.452;19.526;2023-07-20T22:29:31;2.75;;;1.70;;
56413;SDS011;42318;48.452;19.526;2023-07-20T22:34:32;2.47;;;1.70;;
56413;SDS011;42318;48.452;19.526;2023-07-20T22:39:34;2.60;;;1.90;;
56413;SDS011;42318;48.452;19.526;2023-07-20T22:44:35;2.55;;;1.83;;
56413;SDS011;42318;48.452;19.526;2023-07-20T22:49:35;3.13;;;1.90;;
56413;SDS011;42318;48.452;19.526;2023-07-20T22:54:36;2.63;;;1.75;;
56413;SDS011;42318;48.452;19.526;2023-07-20T22:59:37;2.35;;;1.60;;
56413;SDS011;42318;48.452;19.526;2023-07-20T23:04:38;2.60;;;1.90;;
56413;SDS011;42318;48.452;19.526;2023-07-20T23:09:39;2.25;;;1.67;;
56413;SDS011;42318;48.452;19.526;2023-07-20T23:14:39;2.72;;;1.85;;
56413;SDS011;42318;48.452;19.526;2023-07-20T23:19:41;2.45;;;1.80;;
56413;SDS011;42318;48.452;19.526;2023-07-20T23:24:42;2.20;;;1.60;;
56413;SDS011;42318;48.452;19.526;2023-07-20T23:29:44;2.20;;;1.75;;
56413;SDS011;42318;48.452;19.526;2023-07-20T23:34:45;3.00;;;1.65;;
56413;SDS011;42318;48.452;19.526;2023-07-20T23:39:46;2.83;;;1.58;;
56413;SDS011;42318;48.452;19.526;2023-07-20T23:44:47;2.72;;;1.77;;
56413;SDS011;42318;48.452;19.526;2023-07-20T23:49:48;3.53;;;2.13;;
56413;SDS011;42318;48.452;19.526;2023-07-20T23:54:50;2.38;;;1.58;;
56413;SDS011;42318;48.452;19.526;2023-07-20T23:59:50;2.45;;;1.70;;
